createdAt,value
2019-01-24T00:01:35.864Z,-6.93
2019-01-24T00:04:05.304Z,-7.08
2019-01-24T00:06:34.622Z,-7.27
2019-01-24T00:09:05.527Z,-7.46
2019-01-24T00:11:34.983Z,-7.63
2019-01-24T00:14:04.396Z,-7.75
2019-01-24T00:16:33.824Z,-7.77
2019-01-24T00:19:03.185Z,-7.72
2019-01-24T00:21:32.610Z,-7.53
2019-01-24T00:24:02.023Z,-7.18
2019-01-24T00:26:31.520Z,-6.79
2019-01-24T00:29:01.023Z,-6.41
2019-01-24T00:31:30.524Z,-6.11
2019-01-24T00:33:59.990Z,-5.89
2019-01-24T00:36:29.350Z,-5.74
2019-01-24T00:38:58.686Z,-5.66
2019-01-24T00:41:29.084Z,-5.63
2019-01-24T00:43:58.545Z,-5.62
2019-01-24T00:46:27.998Z,-5.63
2019-01-24T00:48:57.363Z,-5.64
2019-01-24T00:51:26.736Z,-5.65
2019-01-24T00:53:56.140Z,-5.63
2019-01-24T00:56:25.507Z,-5.60
2019-01-24T00:58:54.966Z,-5.60
2019-01-24T01:01:24.461Z,-5.60
2019-01-24T01:03:53.969Z,-5.65
2019-01-24T01:06:54.031Z,-5.82
2019-01-24T01:09:34.914Z,-5.99
2019-01-24T01:12:04.752Z,-5.99
2019-01-24T01:14:35.380Z,-6.16
2019-01-24T01:17:25.362Z,-6.23
2019-01-24T01:19:55.004Z,-6.37
2019-01-24T01:22:24.681Z,-6.50
2019-01-24T01:24:54.097Z,-6.67
2019-01-24T01:27:23.669Z,-6.84
2019-01-24T01:29:56.037Z,-7.02
2019-01-24T01:32:25.562Z,-7.19
2019-01-24T01:34:55.709Z,-7.38
2019-01-24T01:37:25.012Z,-7.61
2019-01-24T01:39:54.542Z,-7.84
2019-01-24T01:42:24.109Z,-8.06
2019-01-24T01:44:53.431Z,-8.26
2019-01-24T01:47:22.937Z,-8.40
2019-01-24T01:49:52.525Z,-8.53
2019-01-24T01:52:22.003Z,-8.59
2019-01-24T01:54:51.523Z,-8.69
2019-01-24T01:57:21.021Z,-8.78
2019-01-24T01:59:50.524Z,-8.87
2019-01-24T02:02:19.873Z,-8.95
2019-01-24T02:04:49.516Z,-9.05
2019-01-24T02:07:18.856Z,-9.15
2019-01-24T02:09:48.250Z,-9.20
2019-01-24T02:12:17.546Z,-9.11
2019-01-24T02:14:46.905Z,-9.00
2019-01-24T02:17:16.245Z,-8.95
2019-01-24T02:19:45.609Z,-8.91
2019-01-24T02:22:14.923Z,-8.91
2019-01-24T02:24:44.346Z,-8.92
2019-01-24T02:27:13.685Z,-8.97
2019-01-24T02:29:45.065Z,-9.08
2019-01-24T02:32:14.517Z,-9.16
2019-01-24T02:34:49.661Z,-9.14
2019-01-24T02:37:14.892Z,-9.15
2019-01-24T02:39:44.318Z,-9.16
2019-01-24T02:42:13.783Z,-9.23
2019-01-24T02:44:43.255Z,-9.33
2019-01-24T02:47:12.755Z,-9.41
2019-01-24T02:49:42.183Z,-9.49
2019-01-24T02:52:11.575Z,-9.53
2019-01-24T02:54:40.938Z,-9.58
2019-01-24T02:57:10.292Z,-9.63
2019-01-24T02:59:40.285Z,-9.67
2019-01-24T03:02:09.700Z,-9.72
2019-01-24T03:04:39.017Z,-9.72
2019-01-24T03:07:08.393Z,-9.70
2019-01-24T03:09:37.850Z,-9.69
2019-01-24T03:12:07.205Z,-9.67
2019-01-24T03:14:36.621Z,-9.68
2019-01-24T03:17:05.944Z,-9.67
2019-01-24T03:19:35.396Z,-9.63
2019-01-24T03:22:04.742Z,-9.53
2019-01-24T03:24:34.102Z,-9.42
2019-01-24T03:27:03.347Z,-9.30
2019-01-24T03:29:32.667Z,-9.24
2019-01-24T03:32:02.150Z,-9.20
2019-01-24T03:34:31.572Z,-9.22
2019-01-24T03:37:00.787Z,-9.27
2019-01-24T03:39:30.210Z,-9.34
2019-01-24T03:41:59.423Z,-9.41
2019-01-24T03:44:29.870Z,-9.47
2019-01-24T03:46:59.204Z,-9.47
2019-01-24T03:49:28.657Z,-9.50
2019-01-24T03:52:00.002Z,-9.55
2019-01-24T03:54:29.434Z,-9.55
2019-01-24T03:56:58.733Z,-9.48
2019-01-24T03:59:28.054Z,-9.34
2019-01-24T04:01:57.475Z,-9.15
2019-01-24T04:04:26.926Z,-8.91
2019-01-24T04:06:56.518Z,-8.64
2019-01-24T04:09:25.920Z,-8.28
2019-01-24T04:11:55.253Z,-7.95
2019-01-24T04:14:24.596Z,-7.65
2019-01-24T04:16:53.869Z,-7.38
2019-01-24T04:19:23.346Z,-7.17
2019-01-24T04:21:52.853Z,-6.96
2019-01-24T04:24:22.107Z,-6.76
2019-01-24T04:26:51.474Z,-6.61
2019-01-24T04:29:20.936Z,-6.49
2019-01-24T04:31:50.456Z,-6.39
2019-01-24T04:34:19.861Z,-6.32
2019-01-24T04:36:49.333Z,-6.23
2019-01-24T04:39:18.754Z,-6.14
2019-01-24T04:41:48.106Z,-6.09
2019-01-24T04:44:17.346Z,-6.04
2019-01-24T04:46:46.674Z,-6.01
2019-01-24T04:49:16.374Z,-5.94
2019-01-24T04:51:45.695Z,-5.88
2019-01-24T04:54:15.009Z,-5.77
2019-01-24T04:56:44.367Z,-5.77
2019-01-24T04:59:13.854Z,-5.74
2019-01-24T05:01:43.301Z,-5.70
2019-01-24T05:04:12.630Z,-5.69
2019-01-24T05:06:42.190Z,-5.65
2019-01-24T05:09:11.526Z,-5.62
2019-01-24T05:11:40.991Z,-5.60
2019-01-24T05:14:10.350Z,-5.61
2019-01-24T05:16:39.693Z,-5.58
2019-01-24T05:19:09.033Z,-5.49
2019-01-24T05:21:38.420Z,-5.44
2019-01-24T05:24:07.697Z,-5.40
2019-01-24T05:26:37.037Z,-5.40
2019-01-24T05:29:06.496Z,-5.36
2019-01-24T05:31:36.907Z,-5.30
2019-01-24T05:34:06.219Z,-5.24
2019-01-24T05:36:35.669Z,-5.24
2019-01-24T05:39:48.595Z,-5.15
2019-01-24T05:42:18.023Z,-5.08
2019-01-24T05:44:47.457Z,-5.08
2019-01-24T05:47:35.840Z,-5.07
2019-01-24T05:50:06.350Z,-5.06
2019-01-24T05:52:35.856Z,-5.06
2019-01-24T05:55:42.013Z,-5.03
2019-01-24T05:58:11.312Z,-5.03
2019-01-24T06:00:59.644Z,-4.96
2019-01-24T06:03:29.044Z,-4.96
2019-01-24T06:06:35.224Z,-4.95
2019-01-24T06:09:06.181Z,-4.95
2019-01-24T06:11:45.702Z,-4.96
2019-01-24T06:14:15.093Z,-4.96
2019-01-24T06:16:44.499Z,-4.91
2019-01-24T06:19:13.976Z,-4.90
2019-01-24T06:22:02.340Z,-4.89
2019-01-24T06:24:31.836Z,-4.86
2019-01-24T06:27:01.287Z,-4.86
2019-01-24T06:29:30.576Z,-4.84
2019-01-24T06:32:54.297Z,-4.80
2019-01-24T06:35:48.666Z,-4.75
2019-01-24T06:38:25.718Z,-4.75
2019-01-24T06:40:55.159Z,-4.75
2019-01-24T06:46:13.158Z,-4.69
2019-01-24T06:49:12.472Z,-4.64
2019-01-24T06:51:41.961Z,-4.63
2019-01-24T06:55:05.644Z,-4.65
2019-01-24T06:57:37.050Z,-4.65
2019-01-24T07:00:09.425Z,-4.61
2019-01-24T07:02:46.448Z,-4.55
2019-01-24T07:05:15.977Z,-4.55
2019-01-24T07:11:44.596Z,-4.52
2019-01-24T07:14:26.095Z,-4.58
2019-01-24T07:16:55.701Z,-4.50
2019-01-24T07:19:25.090Z,-4.50
2019-01-24T07:21:57.157Z,-4.40
2019-01-24T07:27:28.771Z,-4.32
2019-01-24T07:29:58.174Z,-4.32
2019-01-24T07:32:59.708Z,-4.29
2019-01-24T07:35:51.131Z,-4.30
2019-01-24T07:38:51.850Z,-4.34
2019-01-24T07:42:00.517Z,-4.34
2019-01-24T07:44:35.739Z,-4.33
2019-01-24T07:47:05.188Z,-4.29
2019-01-24T07:49:34.579Z,-4.26
2019-01-24T07:52:04.001Z,-4.26
2019-01-24T07:54:33.300Z,-4.23
2019-01-24T07:57:02.658Z,-4.15
2019-01-24T07:59:32.049Z,-4.15
2019-01-24T08:02:01.330Z,-4.13
2019-01-24T08:04:30.633Z,-4.13
2019-01-24T08:06:59.883Z,-4.12
2019-01-24T08:09:29.351Z,-4.07
2019-01-24T08:12:35.435Z,-4.03
2019-01-24T08:15:05.109Z,-4.03
2019-01-24T08:17:34.841Z,-4.00
2019-01-24T08:20:05.199Z,-3.96
2019-01-24T08:22:34.481Z,-4.03
2019-01-24T08:25:04.307Z,-4.03
2019-01-24T08:27:33.830Z,-4.02
2019-01-24T08:33:12.353Z,-3.95
2019-01-24T08:35:41.702Z,-3.83
2019-01-24T08:38:11.055Z,-3.77
2019-01-24T08:40:40.609Z,-3.87
2019-01-24T08:43:10.111Z,-3.87
2019-01-24T08:45:39.458Z,-3.91
2019-01-24T08:48:09.704Z,-3.90
2019-01-24T08:50:39.116Z,-3.81
2019-01-24T08:53:08.389Z,-3.73
2019-01-24T08:55:40.069Z,-3.66
2019-01-24T08:58:10.146Z,-3.55
2019-01-24T09:00:39.812Z,-3.51
2019-01-24T09:03:09.532Z,-3.46
2019-01-24T09:05:39.032Z,-3.41
2019-01-24T09:08:08.351Z,-3.42
2019-01-24T09:10:42.803Z,-3.42
2019-01-24T09:13:13.903Z,-3.33
2019-01-24T09:15:43.920Z,-3.24
2019-01-24T09:18:13.811Z,-3.16
2019-01-24T09:20:43.360Z,-3.11
2019-01-24T09:23:12.634Z,-3.14
2019-01-24T09:25:42.019Z,-3.10
2019-01-24T09:28:14.904Z,-3.06
2019-01-24T09:30:42.748Z,-3.01
2019-01-24T09:33:12.220Z,-2.93
2019-01-24T09:35:41.506Z,-2.88
2019-01-24T09:38:10.919Z,-2.82
2019-01-24T09:40:40.380Z,-2.79
2019-01-24T09:43:09.693Z,-2.74
2019-01-24T09:45:41.543Z,-2.74
2019-01-24T09:48:11.297Z,-2.77
2019-01-24T09:50:40.691Z,-2.76
2019-01-24T09:53:09.992Z,-2.68
2019-01-24T09:55:39.460Z,-2.58
2019-01-24T09:58:08.851Z,-2.55
2019-01-24T10:00:38.864Z,-2.49
2019-01-24T10:03:08.598Z,-2.44
2019-01-24T10:05:37.951Z,-2.43
2019-01-24T10:08:08.058Z,-2.36
2019-01-24T10:10:37.531Z,-2.34
2019-01-24T10:13:07.359Z,-2.40
2019-01-24T10:15:37.184Z,-2.34
2019-01-24T10:18:07.129Z,-2.19
2019-01-24T10:20:37.533Z,-2.07
2019-01-24T10:23:06.969Z,-2.07
2019-01-24T10:25:38.451Z,-2.00
2019-01-24T10:28:08.500Z,-1.92
2019-01-24T10:30:42.699Z,-1.87
2019-01-24T10:33:09.513Z,-1.79
2019-01-24T10:35:38.906Z,-1.69
2019-01-24T10:38:08.173Z,-1.69
2019-01-24T10:40:37.716Z,-1.61
2019-01-24T10:43:07.383Z,-1.64
2019-01-24T10:45:36.817Z,-1.53
2019-01-24T10:48:06.452Z,-1.41
2019-01-24T10:50:36.924Z,-1.42
2019-01-24T10:53:06.430Z,-1.36
2019-01-24T10:55:35.753Z,-1.31
2019-01-24T10:58:07.497Z,-1.38
2019-01-24T11:00:44.722Z,-1.29
2019-01-24T11:03:16.192Z,-1.25
2019-01-24T11:05:46.839Z,-1.20
2019-01-24T11:08:16.637Z,-1.24
2019-01-24T11:10:46.151Z,-1.30
2019-01-24T11:13:15.507Z,-1.23
2019-01-24T11:15:45.896Z,-1.23
2019-01-24T11:18:15.276Z,-1.32
2019-01-24T11:20:44.734Z,-1.22
2019-01-24T11:23:14.469Z,-1.22
2019-01-24T11:25:43.828Z,-1.23
2019-01-24T11:28:13.107Z,-1.18
2019-01-24T11:30:42.590Z,-1.11
2019-01-24T11:33:12.212Z,-1.07
2019-01-24T11:35:41.780Z,-1.04
2019-01-24T11:38:11.076Z,-1.20
2019-01-24T11:40:40.513Z,-1.18
2019-01-24T11:43:09.793Z,-1.28
2019-01-24T11:45:43.874Z,-1.29
2019-01-24T11:48:13.222Z,-1.42
2019-01-24T11:50:42.602Z,-1.50
2019-01-24T11:53:11.999Z,-1.49
2019-01-24T11:55:41.497Z,-1.54
2019-01-24T11:58:10.857Z,-1.49
2019-01-24T12:00:45.756Z,-1.61
2019-01-24T12:03:41.229Z,-1.69
2019-01-24T12:06:12.627Z,-1.69
2019-01-24T12:08:54.089Z,-1.73
2019-01-24T12:11:30.430Z,-1.94
2019-01-24T12:13:59.898Z,-2.10
2019-01-24T12:16:29.723Z,-2.24
2019-01-24T12:18:59.296Z,-2.17
2019-01-24T12:21:28.690Z,-2.05
2019-01-24T12:23:57.949Z,-2.03
2019-01-24T12:26:27.319Z,-2.03
2019-01-24T12:28:56.643Z,-1.98
2019-01-24T12:31:26.105Z,-1.93
2019-01-24T12:33:55.529Z,-1.70
2019-01-24T12:36:24.931Z,-1.52
2019-01-24T12:38:54.249Z,-1.34
2019-01-24T12:41:24.709Z,-1.24
2019-01-24T12:43:53.952Z,-1.20
2019-01-24T12:46:23.307Z,-1.19
2019-01-24T12:48:52.612Z,-1.23
2019-01-24T12:51:22.074Z,-1.22
2019-01-24T12:53:51.440Z,-1.17
2019-01-24T12:56:21.514Z,-1.10
2019-01-24T12:58:53.714Z,-1.04
2019-01-24T13:01:29.412Z,-0.93
2019-01-24T13:04:01.972Z,-0.93
2019-01-24T13:06:32.511Z,-0.97
2019-01-24T13:09:01.866Z,-0.96
2019-01-24T13:11:31.352Z,-0.93
2019-01-24T13:14:00.730Z,-0.89
2019-01-24T13:16:30.091Z,-0.80
2019-01-24T13:18:59.486Z,-0.78
2019-01-24T13:21:29.029Z,-0.74
2019-01-24T13:23:58.355Z,-0.75
2019-01-24T13:26:27.708Z,-0.79
2019-01-24T13:28:57.028Z,-0.73
2019-01-24T13:31:26.333Z,-0.70
2019-01-24T13:33:55.760Z,-0.69
2019-01-24T13:36:25.197Z,-0.73
2019-01-24T13:38:54.545Z,-0.84
2019-01-24T13:41:24.064Z,-0.94
2019-01-24T13:43:53.477Z,-0.92
2019-01-24T13:46:22.791Z,-0.98
2019-01-24T13:48:52.131Z,-1.06
2019-01-24T13:51:21.508Z,-1.21
2019-01-24T13:53:50.963Z,-1.58
2019-01-24T13:56:20.280Z,-1.72
2019-01-24T13:58:49.724Z,-1.87
2019-01-24T14:01:19.179Z,-1.99
2019-01-24T14:03:56.287Z,-1.98
2019-01-24T14:06:25.617Z,-1.96
2019-01-24T14:08:55.031Z,-1.95
2019-01-24T14:11:24.494Z,-1.89
2019-01-24T14:13:54.475Z,-1.84
2019-01-24T14:16:23.835Z,-1.80
2019-01-24T14:18:53.368Z,-1.83
2019-01-24T14:21:22.683Z,-1.90
2019-01-24T14:23:52.088Z,-1.95
2019-01-24T14:26:21.551Z,-1.98
2019-01-24T14:28:50.924Z,-2.03
2019-01-24T14:31:20.375Z,-2.05
2019-01-24T14:33:49.753Z,-2.07
2019-01-24T14:36:25.125Z,-2.07
2019-01-24T14:38:50.518Z,-2.09
2019-01-24T14:41:20.716Z,-2.19
2019-01-24T14:43:50.240Z,-2.26
2019-01-24T14:46:19.853Z,-2.31
2019-01-24T14:48:49.554Z,-2.35
2019-01-24T14:51:18.906Z,-2.36
2019-01-24T14:53:48.481Z,-2.38
2019-01-24T14:56:17.990Z,-2.44
2019-01-24T14:58:47.293Z,-2.47
2019-01-24T15:01:19.691Z,-2.48
2019-01-24T15:03:49.684Z,-2.47
2019-01-24T15:06:19.075Z,-2.47
2019-01-24T15:08:48.503Z,-2.50
2019-01-24T15:11:18.007Z,-2.55
2019-01-24T15:13:47.516Z,-2.47
2019-01-24T15:16:17.446Z,-2.54
2019-01-24T15:18:46.815Z,-2.56
2019-01-24T15:21:16.273Z,-2.57
2019-01-24T15:23:48.555Z,-2.62
2019-01-24T15:26:18.017Z,-2.64
2019-01-24T15:28:47.426Z,-2.66
2019-01-24T15:31:16.934Z,-2.82
2019-01-24T15:33:46.579Z,-2.89
2019-01-24T15:36:16.315Z,-2.95
2019-01-24T15:38:45.702Z,-2.84
2019-01-24T15:41:15.092Z,-2.90
2019-01-24T15:43:44.730Z,-2.95
2019-01-24T15:46:14.166Z,-2.95
2019-01-24T15:48:43.640Z,-2.99
2019-01-24T15:51:13.128Z,-3.03
2019-01-24T15:53:42.563Z,-3.05
2019-01-24T15:56:12.144Z,-3.07
2019-01-24T15:58:41.657Z,-3.13
2019-01-24T16:01:11.250Z,-3.17
2019-01-24T16:03:40.891Z,-3.21
2019-01-24T16:06:10.514Z,-3.23
2019-01-24T16:08:39.944Z,-3.22
2019-01-24T16:11:09.713Z,-3.22
2019-01-24T16:13:39.679Z,-3.23
2019-01-24T16:16:09.493Z,-3.21
2019-01-24T16:18:38.978Z,-3.22
2019-01-24T16:21:08.476Z,-3.22
2019-01-24T16:23:37.936Z,-3.24
2019-01-24T16:26:07.559Z,-3.23
2019-01-24T16:28:36.949Z,-3.25
2019-01-24T16:31:06.756Z,-3.29
2019-01-24T16:33:36.419Z,-3.31
2019-01-24T16:36:06.262Z,-3.31
2019-01-24T16:38:35.854Z,-3.30
2019-01-24T16:41:05.715Z,-3.28
2019-01-24T16:43:35.197Z,-3.29
2019-01-24T16:46:04.679Z,-3.31
2019-01-24T16:48:34.172Z,-3.32
2019-01-24T16:51:03.769Z,-3.33
2019-01-24T16:53:33.610Z,-3.33
2019-01-24T16:56:03.200Z,-3.33
2019-01-24T16:58:32.847Z,-3.35
2019-01-24T17:01:12.682Z,-3.34
2019-01-24T17:03:42.306Z,-3.34
2019-01-24T17:06:12.013Z,-3.41
2019-01-24T17:08:41.859Z,-3.35
2019-01-24T17:11:11.494Z,-3.36
2019-01-24T17:13:41.073Z,-3.35
2019-01-24T17:16:10.867Z,-3.34
2019-01-24T17:18:40.420Z,-3.37
2019-01-24T17:21:10.011Z,-3.39
2019-01-24T17:23:39.625Z,-3.41
2019-01-24T17:26:09.213Z,-3.42
2019-01-24T17:28:39.381Z,-3.44
2019-01-24T17:31:09.060Z,-3.46
2019-01-24T17:33:38.741Z,-3.45
2019-01-24T17:36:08.339Z,-3.45
2019-01-24T17:38:38.137Z,-3.44
2019-01-24T17:41:07.779Z,-3.44
2019-01-24T17:43:37.646Z,-3.45
2019-01-24T17:46:07.359Z,-3.51
2019-01-24T17:48:36.844Z,-3.58
2019-01-24T17:51:06.476Z,-3.58
2019-01-24T17:53:36.070Z,-3.57
2019-01-24T17:56:05.839Z,-3.58
2019-01-24T17:58:35.441Z,-3.57
2019-01-24T18:01:05.412Z,-3.57
2019-01-24T18:03:35.001Z,-3.53
2019-01-24T18:06:04.808Z,-3.52
2019-01-24T18:08:34.471Z,-3.52
2019-01-24T18:11:04.133Z,-3.56
2019-01-24T18:13:33.836Z,-3.61
2019-01-24T18:16:03.452Z,-3.65
2019-01-24T18:18:33.089Z,-3.64
2019-01-24T18:21:02.788Z,-3.63
2019-01-24T18:23:32.592Z,-3.60
2019-01-24T18:26:02.251Z,-3.60
2019-01-24T18:28:31.920Z,-3.57
2019-01-24T18:31:01.743Z,-3.56
2019-01-24T18:33:31.812Z,-3.57
2019-01-24T18:36:01.643Z,-3.57
2019-01-24T18:38:31.387Z,-3.62
2019-01-24T18:41:01.113Z,-3.62
2019-01-24T18:43:30.854Z,-3.61
2019-01-24T18:46:02.157Z,-3.59
2019-01-24T18:48:31.939Z,-3.69
2019-01-24T18:51:01.734Z,-3.83
2019-01-24T18:53:31.506Z,-3.90
2019-01-24T18:56:01.355Z,-3.96
2019-01-24T18:58:31.254Z,-3.84
2019-01-24T19:01:01.104Z,-3.78
2019-01-24T19:03:30.824Z,-3.75
2019-01-24T19:06:00.527Z,-3.74
2019-01-24T19:08:30.273Z,-3.72
2019-01-24T19:11:00.018Z,-3.70
2019-01-24T19:13:29.634Z,-3.71
2019-01-24T19:16:00.175Z,-3.72
2019-01-24T19:18:29.992Z,-3.72
2019-01-24T19:20:59.779Z,-3.71
2019-01-24T19:23:29.939Z,-3.70
2019-01-24T19:25:59.632Z,-3.67
2019-01-24T19:28:29.395Z,-3.65
2019-01-24T19:30:59.199Z,-3.64
2019-01-24T19:33:28.937Z,-3.66
2019-01-24T19:36:00.455Z,-3.71
2019-01-24T19:38:30.356Z,-3.76
2019-01-24T19:41:00.137Z,-3.77
2019-01-24T19:43:29.848Z,-3.79
2019-01-24T19:45:59.841Z,-3.78
2019-01-24T19:48:29.666Z,-3.75
2019-01-24T19:50:59.393Z,-3.74
2019-01-24T19:53:29.234Z,-3.72
2019-01-24T19:56:00.602Z,-3.71
2019-01-24T19:58:30.421Z,-3.70
2019-01-24T20:01:00.282Z,-3.72
2019-01-24T20:03:30.074Z,-3.72
2019-01-24T20:05:59.959Z,-3.73
2019-01-24T20:08:29.577Z,-3.72
2019-01-24T20:10:59.277Z,-3.74
2019-01-24T20:13:29.024Z,-3.75
2019-01-24T20:15:58.800Z,-3.77
2019-01-24T20:18:28.575Z,-3.77
2019-01-24T20:20:59.555Z,-3.77
2019-01-24T20:23:29.436Z,-3.76
2019-01-24T20:25:59.136Z,-3.78
2019-01-24T20:28:28.884Z,-3.88
2019-01-24T20:30:58.560Z,-3.87
2019-01-24T20:33:28.442Z,-3.86
2019-01-24T20:35:59.616Z,-3.80
2019-01-24T20:38:29.507Z,-3.78
2019-01-24T20:40:59.290Z,-3.80
2019-01-24T20:43:35.213Z,-3.80
2019-01-24T20:46:00.516Z,-3.76
2019-01-24T20:48:30.393Z,-3.76
2019-01-24T20:51:00.314Z,-3.76
2019-01-24T20:53:30.139Z,-3.73
2019-01-24T20:55:59.840Z,-3.71
2019-01-24T20:58:29.696Z,-3.70
2019-01-24T21:00:59.387Z,-3.72
2019-01-24T21:03:29.055Z,-3.72
2019-01-24T21:05:58.622Z,-3.73
2019-01-24T21:08:28.390Z,-3.70
2019-01-24T21:10:59.914Z,-3.71
2019-01-24T21:13:29.696Z,-3.72
2019-01-24T21:15:59.462Z,-3.73
2019-01-24T21:18:29.090Z,-3.74
2019-01-24T21:20:58.792Z,-3.67
2019-01-24T21:23:28.378Z,-3.77
2019-01-24T21:25:59.054Z,-3.74
2019-01-24T21:28:28.714Z,-3.77
2019-01-24T21:30:58.411Z,-3.77
2019-01-24T21:33:27.954Z,-3.71
2019-01-24T21:35:57.516Z,-3.76
2019-01-24T21:38:26.984Z,-3.81
2019-01-24T21:40:56.531Z,-3.82
2019-01-24T21:43:26.072Z,-3.81
2019-01-24T21:45:55.663Z,-3.82
2019-01-24T21:48:25.076Z,-3.83
2019-01-24T21:50:54.464Z,-3.79
2019-01-24T21:53:23.829Z,-3.76
2019-01-24T21:55:53.196Z,-3.73
2019-01-24T21:58:22.576Z,-3.72
2019-01-24T22:00:51.994Z,-3.70
2019-01-24T22:03:21.414Z,-3.68
2019-01-24T22:05:50.934Z,-3.67
2019-01-24T22:08:20.252Z,-3.72
2019-01-24T22:10:49.554Z,-3.77
2019-01-24T22:13:19.032Z,-3.78
2019-01-24T22:15:48.474Z,-3.82
2019-01-24T22:18:17.757Z,-3.90
2019-01-24T22:20:47.169Z,-3.92
2019-01-24T22:23:16.544Z,-3.87
2019-01-24T22:25:45.997Z,-3.82
2019-01-24T22:28:15.339Z,-3.78
2019-01-24T22:30:51.882Z,-3.75
2019-01-24T22:33:21.273Z,-3.74
2019-01-24T22:35:50.660Z,-3.70
2019-01-24T22:38:19.923Z,-3.65
2019-01-24T22:40:49.309Z,-3.65
2019-01-24T22:43:18.651Z,-3.66
2019-01-24T22:45:48.132Z,-3.64
2019-01-24T22:48:17.511Z,-3.66
2019-01-24T22:50:46.944Z,-3.70
2019-01-24T22:53:16.319Z,-3.68
2019-01-24T22:55:45.833Z,-3.65
2019-01-24T22:58:15.259Z,-3.67
2019-01-24T23:01:06.155Z,-3.60
2019-01-24T23:03:39.255Z,-3.62
2019-01-24T23:06:08.801Z,-3.54
2019-01-24T23:08:38.380Z,-3.53
2019-01-24T23:11:07.798Z,-3.58
2019-01-24T23:13:37.259Z,-3.59
2019-01-24T23:16:07.052Z,-3.59
2019-01-24T23:18:36.547Z,-3.57
2019-01-24T23:21:06.317Z,-3.57
2019-01-24T23:23:35.741Z,-3.55
2019-01-24T23:26:05.340Z,-3.55
2019-01-24T23:28:34.760Z,-3.55
2019-01-24T23:31:05.196Z,-3.53
2019-01-24T23:33:34.503Z,-3.52
2019-01-24T23:36:04.148Z,-3.50
2019-01-24T23:38:33.438Z,-3.50
2019-01-24T23:41:02.843Z,-3.53
2019-01-24T23:43:32.334Z,-3.56
2019-01-24T23:46:01.788Z,-3.54
2019-01-24T23:48:31.211Z,-3.52
2019-01-24T23:51:00.675Z,-3.45
2019-01-24T23:53:29.973Z,-3.51
2019-01-24T23:55:59.404Z,-3.58
2019-01-24T23:58:30.677Z,-3.66
